sensor_id;sensor_type;location;lat;lon;timestamp;temperature;humidity
10889;DHT22;5497;51.388;6.780;2023-04-22T00:00:11;7.70;99.90
10889;DHT22;5497;51.388;6.780;2023-04-22T00:02:39;7.70;99.90
10889;DHT22;5497;51.388;6.780;2023-04-22T00:05:06;7.70;99.90
10889;DHT22;5497;51.388;6.780;2023-04-22T00:07:34;7.70;99.90
10889;DHT22;5497;51.388;6.780;2023-04-22T00:10:01;7.60;99.90
10889;DHT22;5497;51.388;6.780;2023-04-22T00:12:28;7.60;99.90
10889;DHT22;5497;51.388;6.780;2023-04-22T00:15:00;7.60;99.90
10889;DHT22;5497;51.388;6.780;2023-04-22T00:17:27;7.50;99.90
10889;DHT22;5497;51.388;6.780;2023-04-22T00:19:54;7.50;99.90
10889;DHT22;5497;51.388;6.780;2023-04-22T00:22:21;7.50;99.90
10889;DHT22;5497;51.388;6.780;2023-04-22T00:24:48;7.60;99.90
10889;DHT22;5497;51.388;6.780;2023-04-22T00:27:19;7.60;99.90
10889;DHT22;5497;51.388;6.780;2023-04-22T00:29:46;7.60;99.90
10889;DHT22;5497;51.388;6.780;2023-04-22T00:32:14;7.60;99.90
10889;DHT22;5497;51.388;6.780;2023-04-22T00:34:41;7.60;99.90
10889;DHT22;5497;51.388;6.780;2023-04-22T00:37:08;7.60;99.90
10889;DHT22;5497;51.388;6.780;2023-04-22T00:39:35;7.60;99.90
10889;DHT22;5497;51.388;6.780;2023-04-22T00:42:04;7.70;99.90
10889;DHT22;5497;51.388;6.780;2023-04-22T00:44:31;7.80;99.90
10889;DHT22;5497;51.388;6.780;2023-04-22T00:46:58;7.80;99.90
10889;DHT22;5497;51.388;6.780;2023-04-22T00:49:26;7.90;99.90
10889;DHT22;5497;51.388;6.780;2023-04-22T00:51:53;7.90;99.90
10889;DHT22;5497;51.388;6.780;2023-04-22T00:54:20;7.90;99.90
10889;DHT22;5497;51.388;6.780;2023-04-22T00:56:47;7.00;99.90
10889;DHT22;5497;51.388;6.780;2023-04-22T00:59:14;7.90;99.90
10889;DHT22;5497;51.388;6.780;2023-04-22T01:01:41;7.90;99.90
10889;DHT22;5497;51.388;6.780;2023-04-22T01:04:09;7.90;99.90
10889;DHT22;5497;51.388;6.780;2023-04-22T01:06:40;7.90;99.90
10889;DHT22;5497;51.388;6.780;2023-04-22T01:09:07;8.00;99.90
10889;DHT22;5497;51.388;6.780;2023-04-22T01:11:34;8.00;99.90
10889;DHT22;5497;51.388;6.780;2023-04-22T01:14:02;8.00;99.90
10889;DHT22;5497;51.388;6.780;2023-04-22T01:16:29;8.00;99.90
10889;DHT22;5497;51.388;6.780;2023-04-22T01:18:58;8.10;99.90
10889;DHT22;5497;51.388;6.780;2023-04-22T01:21:25;8.00;99.90
10889;DHT22;5497;51.388;6.780;2023-04-22T01:23:54;8.00;99.90
10889;DHT22;5497;51.388;6.780;2023-04-22T01:26:21;8.10;99.90
10889;DHT22;5497;51.388;6.780;2023-04-22T01:28:48;8.10;99.90
10889;DHT22;5497;51.388;6.780;2023-04-22T01:31:15;8.10;99.90
10889;DHT22;5497;51.388;6.780;2023-04-22T01:33:42;8.10;99.90
10889;DHT22;5497;51.388;6.780;2023-04-22T01:36:09;8.10;99.90
10889;DHT22;5497;51.388;6.780;2023-04-22T01:38:37;8.20;99.90
10889;DHT22;5497;51.388;6.780;2023-04-22T01:41:05;8.20;99.90
10889;DHT22;5497;51.388;6.780;2023-04-22T01:43:33;8.20;99.90
10889;DHT22;5497;51.388;6.780;2023-04-22T01:46:01;8.10;99.90
10889;DHT22;5497;51.388;6.780;2023-04-22T01:48:28;8.10;99.90
10889;DHT22;5497;51.388;6.780;2023-04-22T01:50:55;8.10;99.90
10889;DHT22;5497;51.388;6.780;2023-04-22T01:53:22;8.10;99.90
10889;DHT22;5497;51.388;6.780;2023-04-22T01:55:51;8.10;99.90
10889;DHT22;5497;51.388;6.780;2023-04-22T01:58:19;8.10;99.90
10889;DHT22;5497;51.388;6.780;2023-04-22T02:00:46;8.10;99.90
10889;DHT22;5497;51.388;6.780;2023-04-22T02:03:13;8.10;99.90
10889;DHT22;5497;51.388;6.780;2023-04-22T02:05:40;8.20;99.90
10889;DHT22;5497;51.388;6.780;2023-04-22T02:08:07;8.20;99.90
10889;DHT22;5497;51.388;6.780;2023-04-22T02:10:35;8.10;99.90
10889;DHT22;5497;51.388;6.780;2023-04-22T02:13:02;8.20;99.90
10889;DHT22;5497;51.388;6.780;2023-04-22T02:15:30;8.20;99.90
10889;DHT22;5497;51.388;6.780;2023-04-22T02:17:57;8.20;99.90
10889;DHT22;5497;51.388;6.780;2023-04-22T02:20:24;8.20;99.90
10889;DHT22;5497;51.388;6.780;2023-04-22T02:22:51;8.20;99.90
10889;DHT22;5497;51.388;6.780;2023-04-22T02:25:18;8.20;99.90
10889;DHT22;5497;51.388;6.780;2023-04-22T02:27:45;8.30;99.90
10889;DHT22;5497;51.388;6.780;2023-04-22T02:30:13;8.30;99.90
10889;DHT22;5497;51.388;6.780;2023-04-22T02:32:41;8.30;99.90
10889;DHT22;5497;51.388;6.780;2023-04-22T02:35:08;8.30;99.90
10889;DHT22;5497;51.388;6.780;2023-04-22T02:37:35;8.30;99.90
10889;DHT22;5497;51.388;6.780;2023-04-22T02:40:02;8.30;99.90
10889;DHT22;5497;51.388;6.780;2023-04-22T02:42:30;8.30;99.90
10889;DHT22;5497;51.388;6.780;2023-04-22T02:44:57;8.40;99.90
10889;DHT22;5497;51.388;6.780;2023-04-22T02:47:24;8.40;99.90
10889;DHT22;5497;51.388;6.780;2023-04-22T02:49:52;8.40;99.90
10889;DHT22;5497;51.388;6.780;2023-04-22T02:52:19;8.40;99.90
10889;DHT22;5497;51.388;6.780;2023-04-22T02:54:46;8.40;99.90
10889;DHT22;5497;51.388;6.780;2023-04-22T02:57:13;8.40;99.90
10889;DHT22;5497;51.388;6.780;2023-04-22T02:59:40;8.40;99.90
10889;DHT22;5497;51.388;6.780;2023-04-22T03:02:08;8.50;99.90
10889;DHT22;5497;51.388;6.780;2023-04-22T03:04:58;8.50;99.90
10889;DHT22;5497;51.388;6.780;2023-04-22T03:07:26;8.60;99.90
10889;DHT22;5497;51.388;6.780;2023-04-22T03:09:53;8.60;99.90
10889;DHT22;5497;51.388;6.780;2023-04-22T03:12:24;8.60;99.90
10889;DHT22;5497;51.388;6.780;2023-04-22T03:14:51;8.70;99.90
10889;DHT22;5497;51.388;6.780;2023-04-22T03:17:19;8.60;99.90
10889;DHT22;5497;51.388;6.780;2023-04-22T03:19:47;8.60;99.90
10889;DHT22;5497;51.388;6.780;2023-04-22T03:22:16;8.50;99.90
10889;DHT22;5497;51.388;6.780;2023-04-22T03:24:44;8.50;99.90
10889;DHT22;5497;51.388;6.780;2023-04-22T03:27:12;8.50;99.90
10889;DHT22;5497;51.388;6.780;2023-04-22T03:29:43;8.50;99.90
10889;DHT22;5497;51.388;6.780;2023-04-22T03:32:10;8.50;99.90
10889;DHT22;5497;51.388;6.780;2023-04-22T03:34:38;8.50;99.90
10889;DHT22;5497;51.388;6.780;2023-04-22T03:37:07;8.50;99.90
10889;DHT22;5497;51.388;6.780;2023-04-22T03:39:36;8.40;99.90
10889;DHT22;5497;51.388;6.780;2023-04-22T03:42:04;8.40;99.90
10889;DHT22;5497;51.388;6.780;2023-04-22T03:44:32;8.40;99.90
10889;DHT22;5497;51.388;6.780;2023-04-22T03:46:59;8.40;99.90
10889;DHT22;5497;51.388;6.780;2023-04-22T03:49:31;8.50;99.90
10889;DHT22;5497;51.388;6.780;2023-04-22T03:51:58;8.50;99.90
10889;DHT22;5497;51.388;6.780;2023-04-22T03:54:26;8.50;99.90
10889;DHT22;5497;51.388;6.780;2023-04-22T03:56:55;8.60;99.90
10889;DHT22;5497;51.388;6.780;2023-04-22T03:59:23;8.60;99.90
10889;DHT22;5497;51.388;6.780;2023-04-22T04:01:51;8.70;99.90
10889;DHT22;5497;51.388;6.780;2023-04-22T04:04:21;8.70;99.90
10889;DHT22;5497;51.388;6.780;2023-04-22T04:06:53;8.70;99.90
10889;DHT22;5497;51.388;6.780;2023-04-22T04:09:20;8.70;99.90
10889;DHT22;5497;51.388;6.780;2023-04-22T04:11:47;8.60;99.90
10889;DHT22;5497;51.388;6.780;2023-04-22T04:14:15;8.60;99.90
10889;DHT22;5497;51.388;6.780;2023-04-22T04:16:46;8.60;99.90
10889;DHT22;5497;51.388;6.780;2023-04-22T04:19:24;8.60;99.90
10889;DHT22;5497;51.388;6.780;2023-04-22T04:21:51;8.60;99.90
10889;DHT22;5497;51.388;6.780;2023-04-22T04:24:19;8.60;99.90
10889;DHT22;5497;51.388;6.780;2023-04-22T04:26:49;8.60;99.90
10889;DHT22;5497;51.388;6.780;2023-04-22T04:29:21;8.70;99.90
10889;DHT22;5497;51.388;6.780;2023-04-22T04:31:59;8.70;99.90
10889;DHT22;5497;51.388;6.780;2023-04-22T04:34:27;8.70;99.90
10889;DHT22;5497;51.388;6.780;2023-04-22T04:36:55;8.90;99.90
10889;DHT22;5497;51.388;6.780;2023-04-22T04:39:29;8.90;99.90
10889;DHT22;5497;51.388;6.780;2023-04-22T04:41:57;8.90;99.90
10889;DHT22;5497;51.388;6.780;2023-04-22T04:44:28;8.90;99.90
10889;DHT22;5497;51.388;6.780;2023-04-22T04:46:57;8.90;99.90
10889;DHT22;5497;51.388;6.780;2023-04-22T04:49:24;8.90;99.90
10889;DHT22;5497;51.388;6.780;2023-04-22T04:51:57;8.90;99.90
10889;DHT22;5497;51.388;6.780;2023-04-22T04:54:25;8.90;99.90
10889;DHT22;5497;51.388;6.780;2023-04-22T04:56:52;9.10;99.90
10889;DHT22;5497;51.388;6.780;2023-04-22T04:59:19;8.90;99.90
10889;DHT22;5497;51.388;6.780;2023-04-22T05:01:48;9.00;99.90
10889;DHT22;5497;51.388;6.780;2023-04-22T05:04:15;9.10;99.90
10889;DHT22;5497;51.388;6.780;2023-04-22T05:06:43;9.20;99.90
10889;DHT22;5497;51.388;6.780;2023-04-22T05:09:12;9.20;99.90
10889;DHT22;5497;51.388;6.780;2023-04-22T05:11:39;9.30;99.90
10889;DHT22;5497;51.388;6.780;2023-04-22T05:14:14;9.40;99.90
10889;DHT22;5497;51.388;6.780;2023-04-22T05:16:44;9.50;99.90
10889;DHT22;5497;51.388;6.780;2023-04-22T05:19:13;9.50;99.90
10889;DHT22;5497;51.388;6.780;2023-04-22T05:21:42;9.70;99.90
10889;DHT22;5497;51.388;6.780;2023-04-22T05:24:09;9.80;99.90
10889;DHT22;5497;51.388;6.780;2023-04-22T05:26:36;9.80;99.90
10889;DHT22;5497;51.388;6.780;2023-04-22T05:29:09;9.90;99.90
10889;DHT22;5497;51.388;6.780;2023-04-22T05:31:36;10.00;99.90
10889;DHT22;5497;51.388;6.780;2023-04-22T05:34:05;10.10;99.90
10889;DHT22;5497;51.388;6.780;2023-04-22T05:36:52;10.20;99.90
10889;DHT22;5497;51.388;6.780;2023-04-22T05:39:20;10.30;99.90
10889;DHT22;5497;51.388;6.780;2023-04-22T05:41:48;10.50;99.90
10889;DHT22;5497;51.388;6.780;2023-04-22T05:44:17;10.60;99.90
10889;DHT22;5497;51.388;6.780;2023-04-22T05:46:45;10.80;99.90
10889;DHT22;5497;51.388;6.780;2023-04-22T05:49:13;10.90;99.90
10889;DHT22;5497;51.388;6.780;2023-04-22T05:52:03;11.00;99.90
10889;DHT22;5497;51.388;6.780;2023-04-22T05:54:42;11.10;99.90
10889;DHT22;5497;51.388;6.780;2023-04-22T05:57:10;11.20;99.90
10889;DHT22;5497;51.388;6.780;2023-04-22T05:59:37;11.30;99.90
10889;DHT22;5497;51.388;6.780;2023-04-22T06:02:06;11.50;99.90
10889;DHT22;5497;51.388;6.780;2023-04-22T06:04:33;11.70;99.90
10889;DHT22;5497;51.388;6.780;2023-04-22T06:07:00;11.90;99.90
10889;DHT22;5497;51.388;6.780;2023-04-22T06:09:29;12.10;99.90
10889;DHT22;5497;51.388;6.780;2023-04-22T06:11:56;12.20;99.90
10889;DHT22;5497;51.388;6.780;2023-04-22T06:14:23;12.40;99.90
10889;DHT22;5497;51.388;6.780;2023-04-22T06:16:50;12.60;99.90
10889;DHT22;5497;51.388;6.780;2023-04-22T06:19:18;12.80;99.90
10889;DHT22;5497;51.388;6.780;2023-04-22T06:21:45;13.10;99.90
10889;DHT22;5497;51.388;6.780;2023-04-22T06:24:12;13.30;99.90
10889;DHT22;5497;51.388;6.780;2023-04-22T06:26:42;13.50;99.90
10889;DHT22;5497;51.388;6.780;2023-04-22T06:29:09;13.60;99.90
10889;DHT22;5497;51.388;6.780;2023-04-22T06:31:38;14.10;99.90
10889;DHT22;5497;51.388;6.780;2023-04-22T06:34:05;15.30;99.90
10889;DHT22;5497;51.388;6.780;2023-04-22T06:36:36;17.10;99.90
10889;DHT22;5497;51.388;6.780;2023-04-22T06:39:04;18.90;99.90
10889;DHT22;5497;51.388;6.780;2023-04-22T06:41:59;20.30;99.90
10889;DHT22;5497;51.388;6.780;2023-04-22T06:44:47;21.90;99.90
10889;DHT22;5497;51.388;6.780;2023-04-22T06:47:40;23.10;99.90
10889;DHT22;5497;51.388;6.780;2023-04-22T06:50:11;24.10;99.90
10889;DHT22;5497;51.388;6.780;2023-04-22T06:53:00;24.80;99.90
10889;DHT22;5497;51.388;6.780;2023-04-22T06:55:27;25.30;99.90
10889;DHT22;5497;51.388;6.780;2023-04-22T06:57:55;25.80;99.90
10889;DHT22;5497;51.388;6.780;2023-04-22T07:00:23;26.20;99.90
10889;DHT22;5497;51.388;6.780;2023-04-22T07:02:59;26.70;99.90
10889;DHT22;5497;51.388;6.780;2023-04-22T07:05:27;27.30;99.90
10889;DHT22;5497;51.388;6.780;2023-04-22T07:07:55;27.80;99.90
10889;DHT22;5497;51.388;6.780;2023-04-22T07:10:23;28.00;99.90
10889;DHT22;5497;51.388;6.780;2023-04-22T07:13:11;28.10;99.90
10889;DHT22;5497;51.388;6.780;2023-04-22T07:15:38;28.30;99.90
10889;DHT22;5497;51.388;6.780;2023-04-22T07:18:05;28.60;99.90
10889;DHT22;5497;51.388;6.780;2023-04-22T07:20:32;29.10;99.90
10889;DHT22;5497;51.388;6.780;2023-04-22T07:22:59;29.60;99.90
10889;DHT22;5497;51.388;6.780;2023-04-22T07:25:26;29.70;99.90
10889;DHT22;5497;51.388;6.780;2023-04-22T07:27:53;30.00;99.90
10889;DHT22;5497;51.388;6.780;2023-04-22T07:30:24;30.00;99.90
10889;DHT22;5497;51.388;6.780;2023-04-22T07:32:51;29.90;99.90
10889;DHT22;5497;51.388;6.780;2023-04-22T07:35:18;29.20;99.90
10889;DHT22;5497;51.388;6.780;2023-04-22T07:37:45;28.70;99.90
10889;DHT22;5497;51.388;6.780;2023-04-22T07:40:12;28.60;99.90
10889;DHT22;5497;51.388;6.780;2023-04-22T07:42:39;28.50;99.90
10889;DHT22;5497;51.388;6.780;2023-04-22T07:45:06;28.30;99.90
10889;DHT22;5497;51.388;6.780;2023-04-22T07:47:34;28.70;99.90
10889;DHT22;5497;51.388;6.780;2023-04-22T07:50:01;28.70;99.90
10889;DHT22;5497;51.388;6.780;2023-04-22T07:52:28;28.80;99.90
10889;DHT22;5497;51.388;6.780;2023-04-22T07:54:55;29.20;99.90
10889;DHT22;5497;51.388;6.780;2023-04-22T07:57:22;29.30;99.90
10889;DHT22;5497;51.388;6.780;2023-04-22T07:59:49;29.50;99.90
10889;DHT22;5497;51.388;6.780;2023-04-22T08:02:15;29.50;99.90
10889;DHT22;5497;51.388;6.780;2023-04-22T08:04:43;29.60;99.90
10889;DHT22;5497;51.388;6.780;2023-04-22T08:07:10;29.80;99.90
10889;DHT22;5497;51.388;6.780;2023-04-22T08:09:37;29.60;99.90
10889;DHT22;5497;51.388;6.780;2023-04-22T08:12:04;29.70;99.80
10889;DHT22;5497;51.388;6.780;2023-04-22T08:14:30;29.90;99.10
10889;DHT22;5497;51.388;6.780;2023-04-22T08:16:57;29.70;95.80
10889;DHT22;5497;51.388;6.780;2023-04-22T08:19:24;29.20;97.40
10889;DHT22;5497;51.388;6.780;2023-04-22T08:21:52;28.60;96.30
10889;DHT22;5497;51.388;6.780;2023-04-22T08:24:19;28.20;97.00
10889;DHT22;5497;51.388;6.780;2023-04-22T08:26:46;28.20;98.20
10889;DHT22;5497;51.388;6.780;2023-04-22T08:29:12;28.10;98.30
10889;DHT22;5497;51.388;6.780;2023-04-22T08:31:40;28.20;98.40
10889;DHT22;5497;51.388;6.780;2023-04-22T08:34:07;28.50;99.20
10889;DHT22;5497;51.388;6.780;2023-04-22T08:36:33;29.00;95.00
10889;DHT22;5497;51.388;6.780;2023-04-22T08:39:02;29.00;95.20
10889;DHT22;5497;51.388;6.780;2023-04-22T08:41:28;28.70;95.10
10889;DHT22;5497;51.388;6.780;2023-04-22T08:43:56;28.70;94.80
10889;DHT22;5497;51.388;6.780;2023-04-22T08:46:23;28.50;93.30
10889;DHT22;5497;51.388;6.780;2023-04-22T08:48:51;27.80;94.40
10889;DHT22;5497;51.388;6.780;2023-04-22T08:51:19;27.10;94.70
10889;DHT22;5497;51.388;6.780;2023-04-22T08:53:46;26.60;95.60
10889;DHT22;5497;51.388;6.780;2023-04-22T08:56:14;26.60;95.40
10889;DHT22;5497;51.388;6.780;2023-04-22T08:58:41;26.50;95.10
10889;DHT22;5497;51.388;6.780;2023-04-22T09:01:08;26.70;94.70
10889;DHT22;5497;51.388;6.780;2023-04-22T09:03:35;26.80;94.90
10889;DHT22;5497;51.388;6.780;2023-04-22T09:06:04;27.10;94.90
10889;DHT22;5497;51.388;6.780;2023-04-22T09:08:31;27.60;95.40
10889;DHT22;5497;51.388;6.780;2023-04-22T09:10:59;27.80;95.50
10889;DHT22;5497;51.388;6.780;2023-04-22T09:13:27;27.90;94.60
10889;DHT22;5497;51.388;6.780;2023-04-22T09:15:54;27.80;94.40
10889;DHT22;5497;51.388;6.780;2023-04-22T09:18:21;27.80;93.80
10889;DHT22;5497;51.388;6.780;2023-04-22T09:20:48;27.60;94.10
10889;DHT22;5497;51.388;6.780;2023-04-22T09:23:15;27.60;93.00
10889;DHT22;5497;51.388;6.780;2023-04-22T09:25:41;27.50;94.50
10889;DHT22;5497;51.388;6.780;2023-04-22T09:28:10;27.50;94.10
10889;DHT22;5497;51.388;6.780;2023-04-22T09:30:39;27.70;94.80
10889;DHT22;5497;51.388;6.780;2023-04-22T09:33:06;28.00;94.40
10889;DHT22;5497;51.388;6.780;2023-04-22T09:35:33;28.20;93.60
10889;DHT22;5497;51.388;6.780;2023-04-22T09:38:00;28.20;93.10
10889;DHT22;5497;51.388;6.780;2023-04-22T09:40:28;27.90;92.60
10889;DHT22;5497;51.388;6.780;2023-04-22T09:42:55;27.20;92.80
10889;DHT22;5497;51.388;6.780;2023-04-22T09:45:24;26.60;93.20
10889;DHT22;5497;51.388;6.780;2023-04-22T09:47:53;26.10;92.90
10889;DHT22;5497;51.388;6.780;2023-04-22T09:50:20;25.70;93.40
10889;DHT22;5497;51.388;6.780;2023-04-22T09:52:52;25.40;93.30
10889;DHT22;5497;51.388;6.780;2023-04-22T09:55:20;25.00;93.80
10889;DHT22;5497;51.388;6.780;2023-04-22T09:57:49;24.50;93.90
10889;DHT22;5497;51.388;6.780;2023-04-22T10:00:16;24.10;94.30
10889;DHT22;5497;51.388;6.780;2023-04-22T10:02:43;24.00;94.80
10889;DHT22;5497;51.388;6.780;2023-04-22T10:05:12;24.00;94.90
10889;DHT22;5497;51.388;6.780;2023-04-22T10:07:38;23.90;95.20
10889;DHT22;5497;51.388;6.780;2023-04-22T10:10:06;23.80;95.20
10889;DHT22;5497;51.388;6.780;2023-04-22T10:12:33;23.70;95.60
10889;DHT22;5497;51.388;6.780;2023-04-22T10:15:00;23.50;95.80
10889;DHT22;5497;51.388;6.780;2023-04-22T10:17:27;23.50;95.90
10889;DHT22;5497;51.388;6.780;2023-04-22T10:19:55;23.50;96.40
10889;DHT22;5497;51.388;6.780;2023-04-22T10:22:23;23.60;96.10
10889;DHT22;5497;51.388;6.780;2023-04-22T10:24:50;23.70;96.60
10889;DHT22;5497;51.388;6.780;2023-04-22T10:27:20;23.70;96.30
10889;DHT22;5497;51.388;6.780;2023-04-22T10:29:46;23.80;96.30
10889;DHT22;5497;51.388;6.780;2023-04-22T10:32:23;23.70;96.20
10889;DHT22;5497;51.388;6.780;2023-04-22T10:34:54;23.70;96.50
10889;DHT22;5497;51.388;6.780;2023-04-22T10:37:33;23.60;96.60
10889;DHT22;5497;51.388;6.780;2023-04-22T10:40:07;23.60;97.10
10889;DHT22;5497;51.388;6.780;2023-04-22T10:42:35;23.50;96.90
10889;DHT22;5497;51.388;6.780;2023-04-22T10:45:02;23.50;97.00
10889;DHT22;5497;51.388;6.780;2023-04-22T10:47:30;23.40;96.90
10889;DHT22;5497;51.388;6.780;2023-04-22T10:50:13;23.30;97.40
10889;DHT22;5497;51.388;6.780;2023-04-22T10:52:44;23.20;97.90
10889;DHT22;5497;51.388;6.780;2023-04-22T10:55:11;23.10;97.60
10889;DHT22;5497;51.388;6.780;2023-04-22T10:57:39;23.00;97.90
10889;DHT22;5497;51.388;6.780;2023-04-22T11:00:20;22.90;97.70
10889;DHT22;5497;51.388;6.780;2023-04-22T11:02:50;22.90;98.00
10889;DHT22;5497;51.388;6.780;2023-04-22T11:05:17;23.00;98.20
10889;DHT22;5497;51.388;6.780;2023-04-22T11:07:46;23.30;97.50
10889;DHT22;5497;51.388;6.780;2023-04-22T11:10:29;23.50;98.00
10889;DHT22;5497;51.388;6.780;2023-04-22T11:12:56;23.60;97.70
10889;DHT22;5497;51.388;6.780;2023-04-22T11:15:23;23.70;97.70
10889;DHT22;5497;51.388;6.780;2023-04-22T11:17:50;23.90;97.90
10889;DHT22;5497;51.388;6.780;2023-04-22T11:20:17;24.20;96.80
10889;DHT22;5497;51.388;6.780;2023-04-22T11:22:52;24.40;96.60
10889;DHT22;5497;51.388;6.780;2023-04-22T11:25:19;24.70;96.80
10889;DHT22;5497;51.388;6.780;2023-04-22T11:27:46;24.80;96.90
10889;DHT22;5497;51.388;6.780;2023-04-22T11:30:14;25.00;96.30
10889;DHT22;5497;51.388;6.780;2023-04-22T11:32:41;25.10;96.10
10889;DHT22;5497;51.388;6.780;2023-04-22T11:35:10;25.20;95.80
10889;DHT22;5497;51.388;6.780;2023-04-22T11:37:42;25.10;95.80
10889;DHT22;5497;51.388;6.780;2023-04-22T11:40:11;25.00;95.80
10889;DHT22;5497;51.388;6.780;2023-04-22T11:42:38;25.10;95.90
10889;DHT22;5497;51.388;6.780;2023-04-22T11:45:05;25.10;95.30
10889;DHT22;5497;51.388;6.780;2023-04-22T11:47:33;25.20;95.90
10889;DHT22;5497;51.388;6.780;2023-04-22T11:50:02;25.20;95.80
10889;DHT22;5497;51.388;6.780;2023-04-22T11:52:45;25.00;96.00
10889;DHT22;5497;51.388;6.780;2023-04-22T11:55:13;24.90;96.30
10889;DHT22;5497;51.388;6.780;2023-04-22T11:57:40;24.90;95.80
10889;DHT22;5497;51.388;6.780;2023-04-22T12:00:12;24.80;95.90
10889;DHT22;5497;51.388;6.780;2023-04-22T12:02:42;24.80;96.20
10889;DHT22;5497;51.388;6.780;2023-04-22T12:05:10;24.80;96.10
10889;DHT22;5497;51.388;6.780;2023-04-22T12:07:39;24.80;96.40
10889;DHT22;5497;51.388;6.780;2023-04-22T12:10:09;24.70;96.10
10889;DHT22;5497;51.388;6.780;2023-04-22T12:12:39;24.60;96.30
10889;DHT22;5497;51.388;6.780;2023-04-22T12:15:07;24.40;96.00
10889;DHT22;5497;51.388;6.780;2023-04-22T12:17:35;24.40;96.60
10889;DHT22;5497;51.388;6.780;2023-04-22T12:20:02;24.50;96.70
10889;DHT22;5497;51.388;6.780;2023-04-22T12:22:29;24.60;96.70
10889;DHT22;5497;51.388;6.780;2023-04-22T12:24:58;24.70;97.00
10889;DHT22;5497;51.388;6.780;2023-04-22T12:27:25;24.80;96.60
10889;DHT22;5497;51.388;6.780;2023-04-22T12:29:54;24.80;96.50
10889;DHT22;5497;51.388;6.780;2023-04-22T12:32:23;24.80;96.40
10889;DHT22;5497;51.388;6.780;2023-04-22T12:34:50;25.20;96.60
10889;DHT22;5497;51.388;6.780;2023-04-22T12:37:18;25.50;96.50
10889;DHT22;5497;51.388;6.780;2023-04-22T12:39:45;25.90;96.40
10889;DHT22;5497;51.388;6.780;2023-04-22T12:42:12;26.20;95.50
10889;DHT22;5497;51.388;6.780;2023-04-22T12:44:39;26.00;95.50
10889;DHT22;5497;51.388;6.780;2023-04-22T12:47:07;26.00;95.80
10889;DHT22;5497;51.388;6.780;2023-04-22T12:49:35;26.00;95.70
10889;DHT22;5497;51.388;6.780;2023-04-22T12:52:04;25.90;95.70
10889;DHT22;5497;51.388;6.780;2023-04-22T12:54:31;25.60;95.30
10889;DHT22;5497;51.388;6.780;2023-04-22T12:56:58;25.40;95.70
10889;DHT22;5497;51.388;6.780;2023-04-22T12:59:26;25.20;96.30
10889;DHT22;5497;51.388;6.780;2023-04-22T13:01:53;25.30;96.50
10889;DHT22;5497;51.388;6.780;2023-04-22T13:04:22;25.40;96.30
10889;DHT22;5497;51.388;6.780;2023-04-22T13:06:49;25.30;95.80
10889;DHT22;5497;51.388;6.780;2023-04-22T13:09:21;25.20;96.40
10889;DHT22;5497;51.388;6.780;2023-04-22T13:11:48;25.30;96.60
10889;DHT22;5497;51.388;6.780;2023-04-22T13:14:16;25.10;96.30
10889;DHT22;5497;51.388;6.780;2023-04-22T13:16:43;24.80;96.40
10889;DHT22;5497;51.388;6.780;2023-04-22T13:19:11;24.70;96.80
10889;DHT22;5497;51.388;6.780;2023-04-22T13:21:39;24.60;96.90
10889;DHT22;5497;51.388;6.780;2023-04-22T13:24:07;24.60;97.40
10889;DHT22;5497;51.388;6.780;2023-04-22T13:26:37;24.50;97.00
10889;DHT22;5497;51.388;6.780;2023-04-22T13:29:04;24.30;97.00
10889;DHT22;5497;51.388;6.780;2023-04-22T13:31:38;23.90;97.00
10889;DHT22;5497;51.388;6.780;2023-04-22T13:34:05;23.40;97.30
10889;DHT22;5497;51.388;6.780;2023-04-22T13:36:34;22.90;97.80
10889;DHT22;5497;51.388;6.780;2023-04-22T13:39:04;22.60;98.50
10889;DHT22;5497;51.388;6.780;2023-04-22T13:41:33;22.40;99.90
10889;DHT22;5497;51.388;6.780;2023-04-22T13:44:00;22.20;99.90
10889;DHT22;5497;51.388;6.780;2023-04-22T13:46:29;22.00;99.90
10889;DHT22;5497;51.388;6.780;2023-04-22T13:48:56;21.90;99.90
10889;DHT22;5497;51.388;6.780;2023-04-22T13:51:25;22.00;99.90
10889;DHT22;5497;51.388;6.780;2023-04-22T13:53:56;22.00;99.90
10889;DHT22;5497;51.388;6.780;2023-04-22T13:56:30;22.10;99.90
10889;DHT22;5497;51.388;6.780;2023-04-22T13:58:57;22.10;99.90
10889;DHT22;5497;51.388;6.780;2023-04-22T14:01:24;22.20;99.90
10889;DHT22;5497;51.388;6.780;2023-04-22T14:04:01;22.10;99.90
10889;DHT22;5497;51.388;6.780;2023-04-22T14:06:28;22.00;99.90
10889;DHT22;5497;51.388;6.780;2023-04-22T14:08:57;21.80;99.90
10889;DHT22;5497;51.388;6.780;2023-04-22T14:11:25;21.60;99.90
10889;DHT22;5497;51.388;6.780;2023-04-22T14:13:54;21.60;99.90
10889;DHT22;5497;51.388;6.780;2023-04-22T14:16:21;21.60;99.90
10889;DHT22;5497;51.388;6.780;2023-04-22T14:18:48;21.50;99.90
10889;DHT22;5497;51.388;6.780;2023-04-22T14:21:16;21.50;99.90
10889;DHT22;5497;51.388;6.780;2023-04-22T14:23:43;21.20;99.90
10889;DHT22;5497;51.388;6.780;2023-04-22T14:26:10;20.90;99.90
10889;DHT22;5497;51.388;6.780;2023-04-22T14:28:39;20.60;99.90
10889;DHT22;5497;51.388;6.780;2023-04-22T14:31:08;20.50;99.90
10889;DHT22;5497;51.388;6.780;2023-04-22T14:33:35;20.40;99.90
10889;DHT22;5497;51.388;6.780;2023-04-22T14:36:02;20.40;99.90
10889;DHT22;5497;51.388;6.780;2023-04-22T14:38:29;20.50;99.90
10889;DHT22;5497;51.388;6.780;2023-04-22T14:40:56;20.50;99.90
10889;DHT22;5497;51.388;6.780;2023-04-22T14:43:23;20.50;99.90
10889;DHT22;5497;51.388;6.780;2023-04-22T14:45:50;20.40;99.90
10889;DHT22;5497;51.388;6.780;2023-04-22T14:48:18;20.20;99.90
10889;DHT22;5497;51.388;6.780;2023-04-22T14:50:49;20.20;99.90
10889;DHT22;5497;51.388;6.780;2023-04-22T14:53:16;20.20;99.90
10889;DHT22;5497;51.388;6.780;2023-04-22T14:55:44;20.10;99.90
10889;DHT22;5497;51.388;6.780;2023-04-22T14:58:11;20.10;99.90
10889;DHT22;5497;51.388;6.780;2023-04-22T15:00:38;20.00;99.90
10889;DHT22;5497;51.388;6.780;2023-04-22T15:03:05;19.90;99.90
10889;DHT22;5497;51.388;6.780;2023-04-22T15:05:34;19.90;99.90
10889;DHT22;5497;51.388;6.780;2023-04-22T15:08:01;19.80;99.90
10889;DHT22;5497;51.388;6.780;2023-04-22T15:10:30;19.70;99.90
10889;DHT22;5497;51.388;6.780;2023-04-22T15:12:58;19.60;99.90
10889;DHT22;5497;51.388;6.780;2023-04-22T15:15:26;19.50;99.90
10889;DHT22;5497;51.388;6.780;2023-04-22T15:17:53;19.40;99.90
10889;DHT22;5497;51.388;6.780;2023-04-22T15:20:19;19.30;99.90
10889;DHT22;5497;51.388;6.780;2023-04-22T15:22:48;19.30;99.90
10889;DHT22;5497;51.388;6.780;2023-04-22T15:25:15;19.40;99.90
10889;DHT22;5497;51.388;6.780;2023-04-22T15:27:42;19.40;99.90
10889;DHT22;5497;51.388;6.780;2023-04-22T15:30:09;19.40;99.90
10889;DHT22;5497;51.388;6.780;2023-04-22T15:32:36;19.30;99.90
10889;DHT22;5497;51.388;6.780;2023-04-22T15:35:04;19.20;99.90
10889;DHT22;5497;51.388;6.780;2023-04-22T15:37:32;19.10;99.90
10889;DHT22;5497;51.388;6.780;2023-04-22T15:40:01;19.00;99.90
10889;DHT22;5497;51.388;6.780;2023-04-22T15:42:30;18.90;99.90
10889;DHT22;5497;51.388;6.780;2023-04-22T15:44:58;18.80;99.90
10889;DHT22;5497;51.388;6.780;2023-04-22T15:47:26;18.70;99.90
10889;DHT22;5497;51.388;6.780;2023-04-22T15:49:52;18.70;99.90
10889;DHT22;5497;51.388;6.780;2023-04-22T15:52:23;18.70;99.90
10889;DHT22;5497;51.388;6.780;2023-04-22T15:54:50;18.70;99.90
10889;DHT22;5497;51.388;6.780;2023-04-22T15:57:18;18.60;99.90
10889;DHT22;5497;51.388;6.780;2023-04-22T15:59:45;18.50;99.90